Flight Track Log - Related Links

Times and Time Zones

All times are in EDT time to prevent confusion due to time zone crossing. See the N33182 flight status page for this flight to view local times or setup timezone preferences in your user account.

Time Position Orientation Groundspeed Altitude Reporting Facility
EDT Latitude Longitude Course Direction KTS MPH feet Rate Location/Type
Fri 09:38:44 PM 40.0014 -82.9175 277° West 166 191 1,200  Level Indianapolis Center
Fri 09:39:20 PM 40.0058 -82.9633 284° West 184 212 2,400 2,500 Climbing Indianapolis Center
Fri 09:40:20 PM 40.0186 -83.0311 360° North 212 244 5,200 2,667 Climbing Indianapolis Center
Fri 09:40:59 PM 40.0539 -83.0308 42° Northeast 239 275 6,800 2,280 Climbing Indianapolis Center
Fri 09:42:00 PM 40.1100 -82.9653 43° Northeast 238 274 9,000 2,361 Climbing Indianapolis Center
Fri 09:43:01 PM 40.1681 -82.8942 64° Northeast 278 320 11,600 2,380 Climbing Indianapolis Center
Fri 09:44:01 PM 40.2069 -82.7906 70° East 284 327 13,800 1,900 Climbing Indianapolis Center
Fri 09:45:01 PM 40.2375 -82.6814 68° East 303 349 15,400 1,678 Climbing Indianapolis Center
Fri 09:45:59 PM 40.2739 -82.5614 71° East 341 392 17,100 1,576 Climbing Indianapolis Center
Fri 09:46:59 PM 40.3061 -82.4383 67° East 348 400 18,500 1,488 Climbing Indianapolis Center
Fri 09:48:00 PM 40.3467 -82.3122 69° East 361 415 20,100 1,509 Climbing Indianapolis Center
Fri 09:49:50 PM 40.4161 -82.0694 70° East 391 450 22,800 1,518 Climbing Cleveland Center
Fri 09:50:50 PM 40.4531 -81.9336 69° East 386 444 24,400 1,100 Climbing Cleveland Center
Fri 09:51:50 PM 40.4942 -81.7953 69° East 386 444 25,000 300 Climbing Cleveland Center
Fri 09:52:50 PM 40.5394 -81.6431 70° East 420 483 25,000  Level Cleveland Center
Fri 09:53:50 PM 40.5806 -81.4961 69° East 449 517 25,000  Level Cleveland Center
Fri 09:54:50 PM 40.6275 -81.3328 70° East 472 543 25,000  Level Cleveland Center
Fri 09:55:50 PM 40.6722 -81.1661 69° East 477 549 25,000  Level Cleveland Center
Fri 09:56:50 PM 40.7253 -80.9831 70° East 477 549 25,000  Level Cleveland Center
Fri 09:57:50 PM 40.7694 -80.8244 70° East 472 543 25,000  Level Cleveland Center
Fri 09:58:50 PM 40.8092 -80.6764 70° East 472 543 25,000  Level Cleveland Center
Fri 09:59:50 PM 40.8531 -80.5144 70° East 464 534 25,000  Level Cleveland Center
Fri 10:00:50 PM 40.9028 -80.3358 70° East 464 534 25,000  Level Cleveland Center
Fri 10:01:50 PM 40.9461 -80.1764 71° East 464 534 25,000  Level Cleveland Center
Fri 10:02:50 PM 40.9892 -80.0136 70° East 464 534 25,000  Level Cleveland Center
Fri 10:03:50 PM 41.0281 -79.8731 71° East 464 534 25,000  Level Cleveland Center
Fri 10:04:50 PM 41.0708 -79.7072 69° East 469 540 25,000  Level Cleveland Center
Fri 10:05:50 PM 41.1172 -79.5442 71° East 469 540 25,000  Level Cleveland Center
Fri 10:06:50 PM 41.1594 -79.3778 72° East 469 540 25,000  Level Cleveland Center
Fri 10:07:50 PM 41.2014 -79.2089 71° East 469 540 25,000  Level Cleveland Center
Fri 10:08:50 PM 41.2450 -79.0422 70° East 469 540 25,000  Level Cleveland Center
Fri 10:09:50 PM 41.2906 -78.8725 72° East 469 540 25,000  Level Cleveland Center
Fri 10:10:50 PM 41.3317 -78.7083 71° East 469 540 25,000  Level Cleveland Center
Fri 10:11:50 PM 41.3747 -78.5383 71° East 469 540 25,000  Level Cleveland Center
Fri 10:12:50 PM 41.4175 -78.3681 53° Northeast 469 540 25,000  Level Cleveland Center
Fri 10:13:50 PM 41.4958 -78.2267 51° Northeast 469 540 25,000  Level Cleveland Center
Fri 10:14:57 PM 41.5931 -78.0664 65° Northeast 466 536 25,000  Level New York Center
Fri 10:15:56 PM 41.6464 -77.9111 98° East 475 547 25,000  Level New York Center
Fri 10:16:57 PM 41.6275 -77.7369 129° Southeast 459 528 25,000  Level New York Center
Fri 10:17:55 PM 41.5436 -77.6006 125° Southeast 424 488 25,000  Level New York Center
Fri 10:18:55 PM 41.4686 -77.4572 105° East 447 514 25,000  Level New York Center
Fri 10:19:55 PM 41.4342 -77.2878 105° East 459 528 25,000  Level New York Center
Fri 10:20:56 PM 41.3997 -77.1156 103° East 464 534 25,000  Level New York Center
Fri 10:21:57 PM 41.3692 -76.9442 105° East 470 541 25,000  Level New York Center
Fri 10:22:55 PM 41.3342 -76.7750 109° East 470 541 25,000 -504 Level New York Center
Fri 10:23:56 PM 41.2906 -76.6028 110° East 470 541 24,000 -1,500 Descending New York Center
Fri 10:24:55 PM 41.2464 -76.4444 110° East 475 547 22,000 -2,067 Descending New York Center
Fri 10:25:55 PM 41.2036 -76.2892 108° East 464 534 19,900 -1,950 Descending New York Center
Fri 10:26:55 PM 41.1703 -76.1542 110° East 438 504 18,100 -1,200 Descending New York Center
Fri 10:27:55 PM 41.1272 -75.9964 110° East 415 478 17,500 -1,140 Descending New York Center
Fri 10:28:56 PM 41.0894 -75.8586 110° East 410 472 15,800 -1,686 Descending New York Center
Fri 10:29:56 PM 41.0517 -75.7236 109° East 396 456 14,100 -1,412 Descending New York Center
Fri 10:30:55 PM 41.0211 -75.6031 111° Southeast 391 450 13,000 -1,200 Descending New York Center
Fri 10:31:56 PM 40.9828 -75.4711 111° Southeast 386 444 11,700 -1,240 Descending New York Center
Fri 10:32:56 PM 40.9442 -75.3394 109° East 362 417 10,500 -1,240 Descending New York Center
Fri 10:33:57 PM 40.9167 -75.2361 111° Southeast 321 369 9,200 -1,438 Descending New York Center
Fri 10:34:57 PM 40.8908 -75.1464 110° East 292 336 7,600 -1,109 Descending New York Center
Fri 10:35:56 PM 40.8633 -75.0458 74° East 292 336 7,000 -300 Descending New York Center
Fri 10:36:57 PM 40.8861 -74.9375 70° East 272 313 7,000  Level New York Center
Fri 10:37:55 PM 40.9100 -74.8511 71° East 260 299 7,000 -102 Level New York Center
Fri 10:38:55 PM 40.9292 -74.7781 71° East 238 274 6,800 -496 Descending New York Center
Fri 10:39:56 PM 40.9506 -74.6969 110° East 219 252 6,000 -689 Descending New York Center
Fri 10:40:57 PM 40.9339 -74.6356 162° South 191 220 5,400 -504 Descending New York Center
Fri 10:41:55 PM 40.8764 -74.6103 178° South 180 207 5,000 -202 Descending New York Center
Fri 10:42:56 PM 40.8264 -74.6075 182° South 203 234 5,000  Level New York Center
Fri 10:43:56 PM 40.7681 -74.6097 183° South 203 234 5,000  Level New York Center
Fri 10:44:57 PM 40.7200 -74.6125 183° South 198 228 5,000 -444 Level New York Center
Fri 10:46:11 PM 40.6500 -74.6167 166° South 186 214 4,000 -448 Descending New York TRACON
Fri 10:47:11 PM 40.6000 -74.6000 153° Southeast 190 219 4,000  Level New York TRACON
Fri 10:48:11 PM 40.5500 -74.5667 153° Southeast 197 227 4,000  Level New York TRACON
Fri 10:49:11 PM 40.5000 -74.5333 153° Southeast 189 217 4,000  Level New York TRACON
Fri 10:50:11 PM 40.4500 -74.5000 166° South 194 223 4,000  Level New York TRACON
Fri 10:51:11 PM 40.4000 -74.4833 123° Southeast 195 224 4,000 -350 Level New York TRACON
Fri 10:52:11 PM 40.3667 -74.4167 49° Northeast 206 237 3,300 -500 Descending New York TRACON
Fri 10:53:11 PM 40.4000 -74.3667 37° Northeast 208 239 3,000 -150 Descending New York TRACON
Fri 10:54:11 PM 40.4500 -74.3167 14° North 201 231 3,000  Level New York TRACON
Fri 10:55:11 PM 40.5000 -74.3000 27° Northeast 202 232 3,000  Level New York TRACON
Fri 10:56:11 PM 40.5500 -74.2667 27° Northeast 202 232 3,000 -500 Level New York TRACON
Fri 10:57:11 PM 40.6000 -74.2333 37° Northeast 198 228 2,000 -1,000 Descending New York TRACON
Fri 10:58:11 PM 40.6333 -74.2000 37° Northeast 163 188 1,000 -1,000 Descending New York TRACON

Login

Don't have an account? Register now (free) for customized features, flight alerts, and more!